createdAt,value
2022-11-25T00:01:10.094Z,7.01
2022-11-25T00:03:37.676Z,6.95
2022-11-25T00:06:20.741Z,6.97
2022-11-25T00:08:50.114Z,6.94
2022-11-25T00:11:18.046Z,6.90
2022-11-25T00:13:46.401Z,6.89
2022-11-25T00:16:16.052Z,6.86
2022-11-25T00:18:48.831Z,6.84
2022-11-25T00:21:19.205Z,6.83
2022-11-25T00:23:53.166Z,6.81
2022-11-25T00:26:21.204Z,6.80
2022-11-25T00:28:48.718Z,6.78
2022-11-25T00:31:21.570Z,6.76
2022-11-25T00:33:50.092Z,6.80
2022-11-25T00:36:21.064Z,6.80
2022-11-25T00:38:52.601Z,6.79
2022-11-25T00:41:39.187Z,6.79
2022-11-25T00:44:25.364Z,6.77
2022-11-25T00:46:53.332Z,6.78
2022-11-25T00:49:20.472Z,6.78
2022-11-25T00:51:47.483Z,6.76
2022-11-25T00:54:14.743Z,6.72
2022-11-25T00:56:42.043Z,6.70
2022-11-25T00:59:09.287Z,6.74
2022-11-25T01:01:37.244Z,6.74
2022-11-25T01:04:05.057Z,6.75
2022-11-25T01:06:32.119Z,6.74
2022-11-25T01:08:59.092Z,6.74
2022-11-25T01:11:26.199Z,6.73
2022-11-25T01:14:00.888Z,6.71
2022-11-25T01:16:30.189Z,6.72
2022-11-25T01:18:59.807Z,6.72
2022-11-25T01:21:30.021Z,6.72
2022-11-25T01:23:59.772Z,6.70
2022-11-25T01:26:27.584Z,6.69
2022-11-25T01:29:03.058Z,6.71
2022-11-25T01:31:33.358Z,6.71
2022-11-25T01:34:06.823Z,6.73
2022-11-25T01:36:34.291Z,6.77
2022-11-25T01:39:01.342Z,6.76
2022-11-25T01:41:31.734Z,6.77
2022-11-25T01:44:17.042Z,6.79
2022-11-25T01:46:46.783Z,6.81
2022-11-25T01:49:33.938Z,6.74
2022-11-25T01:52:14.202Z,6.81
2022-11-25T01:54:55.993Z,6.80
2022-11-25T01:57:38.080Z,6.80
2022-11-25T02:00:07.831Z,6.77
2022-11-25T02:02:34.980Z,6.81
2022-11-25T02:05:06.829Z,6.80
2022-11-25T02:07:43.389Z,6.82
2022-11-25T02:10:14.511Z,6.82
2022-11-25T02:12:43.775Z,6.86
2022-11-25T02:15:11.697Z,6.80
2022-11-25T02:17:38.769Z,6.87
2022-11-25T02:20:12.262Z,6.86
2022-11-25T02:23:12.587Z,6.88
2022-11-25T02:25:42.484Z,6.86
2022-11-25T02:28:13.401Z,6.89
2022-11-25T02:30:40.981Z,6.90
2022-11-25T02:33:08.245Z,6.92
2022-11-25T02:35:36.952Z,6.95
2022-11-25T02:38:15.372Z,6.96
2022-11-25T02:40:45.967Z,6.99
2022-11-25T02:43:13.709Z,7.02
2022-11-25T02:45:50.633Z,7.04
2022-11-25T02:48:17.641Z,7.04
2022-11-25T02:50:44.962Z,7.02
2022-11-25T02:53:12.056Z,7.06
2022-11-25T02:55:39.081Z,7.08
2022-11-25T02:58:06.414Z,7.11
2022-11-25T03:00:33.825Z,7.14
2022-11-25T03:03:01.204Z,7.16
2022-11-25T03:05:28.271Z,7.17
2022-11-25T03:07:55.502Z,7.19
2022-11-25T03:10:23.567Z,7.19
2022-11-25T03:12:50.672Z,7.19
2022-11-25T03:15:18.305Z,7.20
2022-11-25T03:17:45.542Z,7.21
2022-11-25T03:20:14.435Z,7.24
2022-11-25T03:22:44.818Z,7.26
2022-11-25T03:25:14.009Z,7.27
2022-11-25T03:27:41.615Z,7.28
2022-11-25T03:30:12.734Z,7.29
2022-11-25T03:32:39.844Z,7.27
2022-11-25T03:35:07.722Z,7.31
2022-11-25T03:37:35.020Z,7.30
2022-11-25T03:40:02.534Z,7.28
2022-11-25T03:42:29.569Z,7.29
2022-11-25T03:44:56.656Z,7.32
2022-11-25T03:47:24.315Z,7.33
2022-11-25T03:49:51.571Z,7.31
2022-11-25T03:52:18.718Z,7.30
2022-11-25T03:54:45.838Z,7.22
2022-11-25T03:57:12.905Z,7.30
2022-11-25T03:59:40.001Z,7.29
2022-11-25T04:02:07.114Z,7.29
2022-11-25T04:04:34.641Z,7.29
2022-11-25T04:07:01.946Z,7.30
2022-11-25T04:09:28.977Z,7.30
2022-11-25T04:12:14.794Z,7.29
2022-11-25T04:14:41.797Z,7.25
2022-11-25T04:17:08.924Z,7.29
2022-11-25T04:19:35.977Z,7.27
2022-11-25T04:22:03.385Z,7.27
2022-11-25T04:24:30.414Z,7.26
2022-11-25T04:26:57.497Z,7.25
2022-11-25T04:29:24.564Z,7.19
2022-11-25T04:31:51.636Z,7.22
2022-11-25T04:34:18.682Z,7.18
2022-11-25T04:36:45.708Z,7.21
2022-11-25T04:39:12.797Z,7.15
2022-11-25T04:41:39.807Z,7.17
2022-11-25T04:44:06.971Z,7.15
2022-11-25T04:46:39.919Z,7.12
2022-11-25T04:49:06.948Z,7.08
2022-11-25T04:51:34.082Z,7.08
2022-11-25T04:54:01.105Z,7.07
2022-11-25T04:56:28.205Z,7.05
2022-11-25T04:59:14.221Z,7.01
2022-11-25T05:01:41.341Z,6.97
2022-11-25T05:04:08.430Z,6.92
2022-11-25T05:06:35.488Z,6.93
2022-11-25T05:09:04.554Z,6.90
2022-11-25T05:11:31.629Z,6.87
2022-11-25T05:13:58.676Z,6.84
2022-11-25T05:16:25.979Z,6.81
2022-11-25T05:18:56.621Z,6.77
2022-11-25T05:21:24.027Z,6.74
2022-11-25T05:23:55.666Z,6.70
2022-11-25T05:26:24.000Z,6.69
2022-11-25T05:28:51.087Z,6.65
2022-11-25T05:31:18.324Z,6.62
2022-11-25T05:33:45.518Z,6.61
2022-11-25T05:36:12.653Z,6.60
2022-11-25T05:38:39.636Z,6.56
2022-11-25T05:41:08.077Z,6.53
2022-11-25T05:43:35.071Z,6.50
2022-11-25T05:46:06.490Z,6.46
2022-11-25T05:48:33.911Z,6.44
2022-11-25T05:51:02.171Z,6.40
2022-11-25T05:53:29.573Z,6.39
2022-11-25T05:56:00.867Z,6.37
2022-11-25T05:58:31.675Z,6.30
2022-11-25T06:00:58.752Z,6.29
2022-11-25T06:03:29.540Z,6.26
2022-11-25T06:05:57.781Z,6.25
2022-11-25T06:08:26.397Z,6.18
2022-11-25T06:10:54.142Z,6.23
2022-11-25T06:13:21.791Z,6.23
2022-11-25T06:15:48.991Z,6.22
2022-11-25T06:18:18.211Z,6.25
2022-11-25T06:20:45.531Z,6.25
2022-11-25T06:23:12.604Z,6.26
2022-11-25T06:25:39.590Z,6.25
2022-11-25T06:28:13.889Z,6.28
2022-11-25T06:30:40.959Z,6.27
2022-11-25T06:33:08.039Z,6.26
2022-11-25T06:35:36.092Z,6.26
2022-11-25T06:38:03.360Z,6.26
2022-11-25T06:40:30.464Z,6.25
2022-11-25T06:42:59.745Z,6.22
2022-11-25T06:45:26.849Z,6.22
2022-11-25T06:47:53.977Z,6.21
2022-11-25T06:50:21.126Z,6.14
2022-11-25T06:52:48.296Z,6.18
2022-11-25T06:55:15.382Z,6.17
2022-11-25T06:57:42.451Z,6.15
2022-11-25T07:00:09.854Z,6.14
2022-11-25T07:02:42.931Z,6.12
2022-11-25T07:05:12.497Z,6.15
2022-11-25T07:07:39.586Z,6.14
2022-11-25T07:10:07.435Z,6.12
2022-11-25T07:12:34.520Z,6.12
2022-11-25T07:15:01.672Z,6.12
2022-11-25T07:17:28.771Z,6.12
2022-11-25T07:19:55.885Z,6.11
2022-11-25T07:22:22.963Z,6.10
2022-11-25T07:24:49.944Z,6.08
2022-11-25T07:27:17.222Z,6.05
2022-11-25T07:30:03.523Z,6.01
2022-11-25T07:32:33.404Z,6.03
2022-11-25T07:35:00.411Z,6.00
2022-11-25T07:37:27.693Z,5.99
2022-11-25T07:39:55.043Z,6.00
2022-11-25T07:42:22.262Z,6.00
2022-11-25T07:44:49.314Z,5.98
2022-11-25T07:47:16.296Z,5.98
2022-11-25T07:49:43.326Z,5.91
2022-11-25T07:52:10.349Z,6.01
2022-11-25T07:54:37.423Z,6.01
2022-11-25T07:57:04.520Z,5.94
2022-11-25T07:59:31.768Z,5.95
2022-11-25T08:01:58.848Z,6.02
2022-11-25T08:04:25.997Z,6.02
2022-11-25T08:06:53.764Z,6.01
2022-11-25T08:09:24.066Z,6.04
2022-11-25T08:11:52.067Z,6.06
2022-11-25T08:14:19.649Z,6.05
2022-11-25T08:16:46.817Z,6.06
2022-11-25T08:19:15.927Z,6.05
2022-11-25T08:21:43.315Z,6.06
2022-11-25T08:24:15.949Z,6.12
2022-11-25T08:26:43.120Z,6.14
2022-11-25T08:29:16.914Z,6.13
2022-11-25T08:31:43.909Z,6.15
2022-11-25T08:34:17.848Z,6.19
2022-11-25T08:36:48.292Z,6.17
2022-11-25T08:39:44.414Z,6.22
2022-11-25T08:42:05.424Z,6.26
2022-11-25T08:44:32.555Z,6.28
2022-11-25T08:46:59.734Z,6.32
2022-11-25T08:49:26.994Z,6.37
2022-11-25T08:51:54.098Z,6.36
2022-11-25T08:54:21.126Z,6.45
2022-11-25T08:56:48.257Z,6.47
2022-11-25T08:59:15.331Z,6.49
2022-11-25T09:01:42.583Z,6.52
2022-11-25T09:04:09.696Z,6.53
2022-11-25T09:06:38.637Z,6.57
2022-11-25T09:09:06.694Z,6.59
2022-11-25T09:11:33.909Z,6.64
2022-11-25T09:14:01.032Z,6.69
2022-11-25T09:16:28.468Z,6.68
2022-11-25T09:18:56.440Z,6.78
2022-11-25T09:21:25.367Z,6.72
2022-11-25T09:23:54.964Z,6.79
2022-11-25T09:26:28.098Z,6.85
2022-11-25T09:28:56.055Z,6.88
2022-11-25T09:31:24.098Z,6.95
2022-11-25T09:33:51.287Z,6.97
2022-11-25T09:36:20.063Z,7.04
2022-11-25T09:38:47.231Z,7.06
2022-11-25T09:42:16.206Z,7.10
2022-11-25T09:45:07.563Z,7.15
2022-11-25T09:47:45.173Z,7.18
2022-11-25T09:50:39.562Z,7.22
2022-11-25T09:53:44.441Z,7.26
2022-11-25T09:56:25.577Z,7.29
2022-11-25T09:58:59.505Z,7.33
2022-11-25T10:01:30.749Z,7.36
2022-11-25T10:04:13.673Z,7.38
2022-11-25T10:06:55.071Z,7.37
2022-11-25T10:09:26.604Z,7.45
2022-11-25T10:12:01.298Z,7.48
2022-11-25T10:14:42.724Z,7.50
2022-11-25T10:17:18.419Z,7.56
2022-11-25T10:20:05.286Z,7.62
2022-11-25T10:22:36.345Z,7.64
2022-11-25T10:25:22.096Z,7.68
2022-11-25T10:27:52.046Z,7.73
2022-11-25T10:30:35.052Z,7.80
2022-11-25T10:33:06.698Z,7.81
2022-11-25T10:35:39.121Z,7.89
2022-11-25T10:38:17.362Z,7.91
2022-11-25T10:40:50.098Z,7.97
2022-11-25T10:43:17.166Z,8.02
2022-11-25T10:45:56.498Z,8.10
2022-11-25T10:48:45.579Z,8.16
2022-11-25T10:51:27.053Z,8.24
2022-11-25T10:54:12.358Z,8.31
2022-11-25T10:56:51.833Z,8.35
2022-11-25T10:59:31.354Z,8.38
2022-11-25T11:02:30.675Z,8.47
2022-11-25T11:04:59.663Z,8.50
2022-11-25T11:07:30.766Z,8.54
2022-11-25T11:10:15.912Z,8.64
2022-11-25T11:12:59.275Z,8.70
2022-11-25T11:15:28.175Z,8.75
2022-11-25T11:17:57.159Z,8.84
2022-11-25T11:20:31.612Z,8.84
2022-11-25T11:23:12.409Z,8.92
2022-11-25T11:25:42.129Z,8.97
2022-11-25T11:28:36.720Z,9.05
2022-11-25T11:31:27.153Z,9.10
2022-11-25T11:34:05.631Z,9.14
2022-11-25T11:36:36.797Z,9.22
2022-11-25T11:39:19.696Z,9.25
2022-11-25T11:42:09.480Z,9.28
2022-11-25T11:44:58.721Z,9.32
2022-11-25T11:47:37.031Z,9.37
2022-11-25T11:50:18.194Z,9.39
2022-11-25T11:52:57.072Z,9.45
2022-11-25T11:55:38.825Z,9.49
2022-11-25T11:58:42.720Z,9.49
2022-11-25T12:01:38.588Z,9.52
2022-11-25T12:04:21.380Z,9.55
2022-11-25T12:07:16.634Z,9.55
2022-11-25T12:10:17.197Z,9.60
2022-11-25T12:12:55.104Z,9.65
2022-11-25T12:15:54.183Z,9.69
2022-11-25T12:18:35.047Z,9.73
2022-11-25T12:21:23.888Z,9.73
2022-11-25T12:24:04.010Z,9.76
2022-11-25T12:26:43.320Z,9.93
2022-11-25T12:29:20.052Z,10.00
2022-11-25T12:31:56.360Z,10.05
2022-11-25T12:34:37.240Z,10.07
2022-11-25T12:37:14.847Z,10.13
2022-11-25T12:40:03.352Z,10.21
2022-11-25T12:42:32.467Z,10.21
2022-11-25T12:45:16.224Z,10.23
2022-11-25T12:47:44.942Z,10.16
2022-11-25T12:51:02.619Z,10.12
2022-11-25T12:53:47.262Z,10.02
2022-11-25T12:56:22.686Z,9.94
2022-11-25T12:59:13.996Z,9.94
2022-11-25T13:01:56.909Z,9.94
2022-11-25T13:04:26.736Z,9.93
2022-11-25T13:07:18.997Z,9.95
2022-11-25T13:10:32.436Z,9.98
2022-11-25T13:13:04.664Z,10.02
2022-11-25T13:15:38.976Z,10.00
2022-11-25T13:18:22.989Z,10.02
2022-11-25T13:20:52.613Z,10.01
2022-11-25T13:23:19.654Z,10.01
2022-11-25T13:25:49.473Z,9.98
2022-11-25T13:28:33.113Z,10.02
2022-11-25T13:31:22.673Z,10.04
2022-11-25T13:33:49.692Z,10.08
2022-11-25T13:36:25.500Z,10.03
2022-11-25T13:38:52.483Z,10.06
2022-11-25T13:41:32.065Z,10.09
2022-11-25T13:44:32.560Z,10.07
2022-11-25T13:47:20.478Z,10.07
2022-11-25T13:49:52.317Z,10.10
2022-11-25T13:52:31.248Z,10.08
2022-11-25T13:54:59.374Z,10.10
2022-11-25T13:57:35.397Z,10.08
2022-11-25T14:00:34.162Z,10.11
2022-11-25T14:03:19.317Z,10.10
2022-11-25T14:05:49.399Z,10.08
2022-11-25T14:08:39.322Z,10.09
2022-11-25T14:11:32.945Z,10.07
2022-11-25T14:14:23.919Z,10.02
2022-11-25T14:17:28.604Z,10.01
2022-11-25T14:19:55.709Z,10.04
2022-11-25T14:22:47.241Z,10.01
2022-11-25T14:25:17.104Z,10.01
2022-11-25T14:27:51.551Z,10.01
2022-11-25T14:30:19.038Z,10.04
2022-11-25T14:32:56.915Z,10.07
2022-11-25T14:35:33.794Z,9.96
2022-11-25T14:38:10.976Z,9.84
2022-11-25T14:40:54.650Z,9.75
2022-11-25T14:43:23.064Z,9.63
2022-11-25T14:46:09.205Z,9.53
2022-11-25T14:48:36.864Z,9.46
2022-11-25T14:51:09.751Z,9.39
2022-11-25T14:53:48.087Z,9.39
2022-11-25T14:56:22.611Z,9.35
2022-11-25T14:58:52.300Z,9.34
2022-11-25T15:01:27.815Z,9.23
2022-11-25T15:04:13.204Z,9.21
2022-11-25T15:06:42.722Z,9.17
2022-11-25T15:09:28.416Z,9.12
2022-11-25T15:12:02.531Z,9.12
2022-11-25T15:14:36.107Z,9.07
2022-11-25T15:17:22.433Z,9.02
2022-11-25T15:19:49.496Z,8.97
2022-11-25T15:22:24.291Z,8.93
2022-11-25T15:25:05.724Z,8.82
2022-11-25T15:27:33.124Z,8.77
2022-11-25T15:30:00.433Z,8.76
2022-11-25T15:32:37.890Z,8.65
2022-11-25T15:35:07.292Z,8.58
2022-11-25T15:37:34.511Z,8.56
2022-11-25T15:40:29.532Z,8.53
2022-11-25T15:42:59.448Z,8.50
2022-11-25T15:45:34.747Z,8.48
2022-11-25T15:48:03.503Z,8.41
2022-11-25T15:50:32.548Z,8.42
2022-11-25T15:53:00.570Z,8.36
2022-11-25T15:55:31.635Z,8.38
2022-11-25T15:58:04.465Z,8.35
2022-11-25T16:00:31.589Z,8.31
2022-11-25T16:02:59.544Z,8.22
2022-11-25T16:05:28.580Z,8.24
2022-11-25T16:07:55.625Z,8.22
2022-11-25T16:10:22.612Z,8.17
2022-11-25T16:13:21.906Z,8.14
2022-11-25T16:16:07.588Z,8.11
2022-11-25T16:18:42.938Z,8.08
2022-11-25T16:21:19.823Z,8.04
2022-11-25T16:23:55.158Z,7.97
2022-11-25T16:26:32.597Z,7.97
2022-11-25T16:29:01.867Z,7.92
2022-11-25T16:31:29.018Z,7.88
2022-11-25T16:34:01.720Z,7.82
2022-11-25T16:36:28.810Z,7.70
2022-11-25T16:38:56.036Z,7.70
2022-11-25T16:41:26.979Z,7.62
2022-11-25T16:43:57.123Z,7.53
2022-11-25T16:46:28.157Z,7.55
2022-11-25T16:48:55.435Z,7.50
2022-11-25T16:51:24.441Z,7.47
2022-11-25T16:53:51.442Z,7.44
2022-11-25T16:56:25.579Z,7.42
2022-11-25T16:58:52.838Z,7.37
2022-11-25T17:01:22.830Z,7.35
2022-11-25T17:03:49.994Z,7.31
2022-11-25T17:06:22.712Z,7.28
2022-11-25T17:08:50.715Z,7.27
2022-11-25T17:11:46.313Z,7.26
2022-11-25T17:14:21.512Z,7.23
2022-11-25T17:16:48.681Z,7.22
2022-11-25T17:19:17.031Z,7.23
2022-11-25T17:21:44.531Z,7.14
2022-11-25T17:24:23.281Z,7.18
2022-11-25T17:26:55.708Z,7.16
2022-11-25T17:29:31.571Z,7.13
2022-11-25T17:31:59.006Z,7.15
2022-11-25T17:34:26.575Z,7.07
2022-11-25T17:36:53.813Z,7.12
2022-11-25T17:39:21.092Z,7.09
2022-11-25T17:41:50.791Z,7.03
2022-11-25T17:44:28.004Z,7.09
2022-11-25T17:46:57.377Z,7.05
2022-11-25T17:49:25.571Z,7.04
2022-11-25T17:51:53.295Z,7.02
2022-11-25T17:54:20.337Z,6.97
2022-11-25T17:56:52.344Z,6.94
2022-11-25T17:59:28.652Z,6.90
2022-11-25T18:01:56.164Z,6.89
2022-11-25T18:04:24.521Z,6.86
2022-11-25T18:06:51.768Z,6.87
2022-11-25T18:09:19.318Z,6.84
2022-11-25T18:11:52.575Z,6.88
2022-11-25T18:14:23.450Z,6.85
2022-11-25T18:16:50.722Z,6.77
2022-11-25T18:19:18.467Z,6.69
2022-11-25T18:21:45.523Z,6.60
2022-11-25T18:24:12.591Z,6.60
2022-11-25T18:26:47.263Z,6.52
2022-11-25T18:29:18.973Z,6.54
2022-11-25T18:31:47.290Z,6.54
2022-11-25T18:34:15.930Z,6.54
2022-11-25T18:36:43.746Z,6.52
2022-11-25T18:39:11.638Z,6.51
2022-11-25T18:41:40.143Z,6.51
2022-11-25T18:44:37.290Z,6.47
2022-11-25T18:47:05.752Z,6.42
2022-11-25T18:49:32.768Z,6.39
2022-11-25T18:51:59.773Z,6.33
2022-11-25T18:54:27.534Z,6.25
2022-11-25T18:56:55.257Z,6.22
2022-11-25T18:59:37.174Z,6.16
2022-11-25T19:02:14.496Z,6.15
2022-11-25T19:04:41.765Z,6.06
2022-11-25T19:07:08.783Z,6.09
2022-11-25T19:09:36.101Z,6.04
2022-11-25T19:12:03.540Z,6.02
2022-11-25T19:14:35.257Z,5.97
2022-11-25T19:17:07.856Z,5.89
2022-11-25T19:19:37.648Z,5.92
2022-11-25T19:22:15.622Z,5.89
2022-11-25T19:24:42.755Z,5.91
2022-11-25T19:27:23.342Z,5.92
2022-11-25T19:29:51.996Z,5.86
2022-11-25T19:32:23.053Z,5.85
2022-11-25T19:35:11.698Z,5.86
2022-11-25T19:37:38.982Z,5.85
2022-11-25T19:40:13.671Z,5.81
2022-11-25T19:42:40.699Z,5.71
2022-11-25T19:45:11.760Z,5.63
2022-11-25T19:47:39.187Z,5.66
2022-11-25T19:50:06.981Z,5.62
2022-11-25T19:52:37.685Z,5.59
2022-11-25T19:55:25.770Z,5.60
2022-11-25T19:57:53.072Z,5.56
2022-11-25T20:00:21.987Z,5.56
2022-11-25T20:02:52.118Z,5.58
2022-11-25T20:05:24.183Z,5.58
2022-11-25T20:07:51.221Z,5.63
2022-11-25T20:10:24.309Z,5.62
2022-11-25T20:12:52.517Z,5.61
2022-11-25T20:15:19.930Z,5.58
2022-11-25T20:17:50.171Z,5.49
2022-11-25T20:20:24.066Z,5.53
2022-11-25T20:22:59.465Z,5.52
2022-11-25T20:25:27.690Z,5.51
2022-11-25T20:27:55.469Z,5.41
2022-11-25T20:30:28.776Z,5.43
2022-11-25T20:32:55.836Z,5.37
2022-11-25T20:35:25.388Z,5.39
2022-11-25T20:37:57.780Z,5.35
2022-11-25T20:40:32.911Z,5.37
2022-11-25T20:43:00.287Z,5.37
2022-11-25T20:45:27.446Z,5.35
2022-11-25T20:47:55.058Z,5.30
2022-11-25T20:50:22.603Z,5.27
2022-11-25T20:52:50.630Z,5.23
2022-11-25T20:55:21.840Z,5.21
2022-11-25T20:57:49.749Z,5.19
2022-11-25T21:01:19.329Z,5.17
2022-11-25T21:03:48.026Z,5.17
2022-11-25T21:06:18.594Z,5.17
2022-11-25T21:08:48.938Z,5.15
2022-11-25T21:11:17.121Z,5.14
2022-11-25T21:13:44.315Z,5.12
2022-11-25T21:16:11.828Z,5.11
2022-11-25T21:18:41.106Z,5.10
2022-11-25T21:21:17.378Z,5.10
2022-11-25T21:23:46.643Z,5.10
2022-11-25T21:26:19.518Z,5.07
2022-11-25T21:28:48.631Z,5.01
2022-11-25T21:31:25.609Z,5.00
2022-11-25T21:33:58.973Z,4.99
2022-11-25T21:36:29.315Z,4.97
2022-11-25T21:39:03.098Z,4.95
2022-11-25T21:41:29.971Z,4.95
2022-11-25T21:43:57.178Z,4.93
2022-11-25T21:46:25.703Z,4.90
2022-11-25T21:48:52.992Z,4.88
2022-11-25T21:51:24.419Z,4.82
2022-11-25T21:53:52.815Z,4.81
2022-11-25T21:56:27.975Z,4.81
2022-11-25T21:58:55.731Z,4.79
2022-11-25T22:01:23.833Z,4.72
2022-11-25T22:03:51.236Z,4.73
2022-11-25T22:06:22.258Z,4.74
2022-11-25T22:08:50.055Z,4.69
2022-11-25T22:11:21.923Z,4.68
2022-11-25T22:13:49.571Z,4.70
2022-11-25T22:16:21.363Z,4.66
2022-11-25T22:18:48.630Z,4.64
2022-11-25T22:21:15.718Z,4.61
2022-11-25T22:23:43.341Z,4.67
2022-11-25T22:26:20.423Z,4.69
2022-11-25T22:28:51.635Z,4.69
2022-11-25T22:31:20.482Z,4.68
2022-11-25T22:33:48.692Z,4.66
2022-11-25T22:36:30.182Z,4.65
2022-11-25T22:39:09.113Z,4.64
2022-11-25T22:41:36.136Z,4.60
2022-11-25T22:44:03.115Z,4.60
2022-11-25T22:46:33.171Z,4.59
2022-11-25T22:49:00.238Z,4.58
2022-11-25T22:51:27.533Z,4.55
2022-11-25T22:53:54.656Z,4.57
2022-11-25T22:56:21.685Z,4.53
2022-11-25T22:58:48.805Z,4.55
2022-11-25T23:01:17.208Z,4.52
2022-11-25T23:03:44.790Z,4.50
2022-11-25T23:06:12.954Z,4.52
2022-11-25T23:08:40.404Z,4.51
2022-11-25T23:11:21.127Z,4.50
2022-11-25T23:13:51.214Z,4.49
2022-11-25T23:16:21.136Z,4.48
2022-11-25T23:18:48.398Z,4.48
2022-11-25T23:21:22.085Z,4.44
2022-11-25T23:23:50.217Z,4.44
2022-11-25T23:26:18.188Z,4.42
2022-11-25T23:28:45.498Z,4.32
2022-11-25T23:31:17.115Z,4.35
2022-11-25T23:33:48.087Z,4.38
2022-11-25T23:36:28.381Z,4.39
2022-11-25T23:39:03.534Z,4.33
2022-11-25T23:41:34.414Z,4.35
2022-11-25T23:44:10.816Z,4.34
2022-11-25T23:46:37.931Z,4.31
2022-11-25T23:49:10.954Z,4.29
2022-11-25T23:51:38.012Z,4.32
2022-11-25T23:54:05.113Z,4.31
2022-11-25T23:56:32.150Z,4.28
2022-11-25T23:58:59.517Z,4.30
